sensor_id;sensor_type;location;lat;lon;timestamp;pressure;altitude;pressure_sealevel;temperature;humidity
34073;BME280;20346;52.702;16.886;2023-02-26T00:00:47;100064.81;;;0.30;77.68
34073;BME280;20346;52.702;16.886;2023-02-26T00:03:33;100071.05;;;0.28;77.72
34073;BME280;20346;52.702;16.886;2023-02-26T00:06:20;100072.20;;;0.26;77.62
34073;BME280;20346;52.702;16.886;2023-02-26T00:09:06;100074.39;;;0.24;77.75
34073;BME280;20346;52.702;16.886;2023-02-26T00:11:53;100080.64;;;0.23;77.75
34073;BME280;20346;52.702;16.886;2023-02-26T00:14:39;100088.63;;;0.25;77.78
34073;BME280;20346;52.702;16.886;2023-02-26T00:17:31;100093.76;;;0.28;77.82
34073;BME280;20346;52.702;16.886;2023-02-26T00:20:18;100098.73;;;0.30;77.82
34073;BME280;20346;52.702;16.886;2023-02-26T00:23:05;100099.27;;;0.32;77.80
34073;BME280;20346;52.702;16.886;2023-02-26T00:25:51;100105.89;;;0.33;77.77
34073;BME280;20346;52.702;16.886;2023-02-26T00:28:37;100107.95;;;0.36;77.76
34073;BME280;20346;52.702;16.886;2023-02-26T00:31:24;100108.83;;;0.36;77.78
34073;BME280;20346;52.702;16.886;2023-02-26T00:34:10;100109.72;;;0.39;77.87
34073;BME280;20346;52.702;16.886;2023-02-26T00:43:21;100114.34;;;0.41;77.71
34073;BME280;20346;52.702;16.886;2023-02-26T00:48:59;100120.80;;;0.33;77.65
34073;BME280;20346;52.702;16.886;2023-02-26T00:51:51;100121.57;;;0.28;77.70
34073;BME280;20346;52.702;16.886;2023-02-26T00:54:40;100116.91;;;0.24;77.71
34073;BME280;20346;52.702;16.886;2023-02-26T00:57:26;100123.63;;;0.20;77.72
34073;BME280;20346;52.702;16.886;2023-02-26T01:00:13;100122.89;;;0.17;77.73
34073;BME280;20346;52.702;16.886;2023-02-26T01:02:59;100124.20;;;0.14;77.75
34073;BME280;20346;52.702;16.886;2023-02-26T01:05:45;100128.54;;;0.11;77.68
34073;BME280;20346;52.702;16.886;2023-02-26T01:11:18;100132.17;;;0.06;77.71
34073;BME280;20346;52.702;16.886;2023-02-26T01:14:04;100135.00;;;0.03;77.67
34073;BME280;20346;52.702;16.886;2023-02-26T01:20:08;100153.05;;;-0.03;77.70
34073;BME280;20346;52.702;16.886;2023-02-26T01:22:59;100156.77;;;-0.03;77.76
34073;BME280;20346;52.702;16.886;2023-02-26T01:25:47;100161.11;;;-0.06;77.80
34073;BME280;20346;52.702;16.886;2023-02-26T01:28:35;100169.06;;;-0.07;77.72
34073;BME280;20346;52.702;16.886;2023-02-26T01:32:05;100170.52;;;-0.10;77.71
34073;BME280;20346;52.702;16.886;2023-02-26T01:34:36;100171.85;;;-0.12;77.76
34073;BME280;20346;52.702;16.886;2023-02-26T01:37:35;100175.35;;;-0.15;77.75
34073;BME280;20346;52.702;16.886;2023-02-26T01:43:54;100179.76;;;-0.22;77.71
34073;BME280;20346;52.702;16.886;2023-02-26T01:49:47;100184.73;;;-0.28;77.81
34073;BME280;20346;52.702;16.886;2023-02-26T01:55:20;100199.88;;;-0.25;77.80
34073;BME280;20346;52.702;16.886;2023-02-26T01:58:06;100197.51;;;-0.24;77.75
34073;BME280;20346;52.702;16.886;2023-02-26T02:00:52;100199.86;;;-0.25;77.71
34073;BME280;20346;52.702;16.886;2023-02-26T02:03:38;100201.84;;;-0.27;77.73
34073;BME280;20346;52.702;16.886;2023-02-26T02:06:26;100203.70;;;-0.27;77.74
34073;BME280;20346;52.702;16.886;2023-02-26T02:09:13;100208.10;;;-0.28;77.76
34073;BME280;20346;52.702;16.886;2023-02-26T02:15:13;100211.59;;;-0.31;77.76
34073;BME280;20346;52.702;16.886;2023-02-26T02:20:54;100214.30;;;-0.31;77.77
34073;BME280;20346;52.702;16.886;2023-02-26T02:24:03;100222.23;;;-0.33;77.75
34073;BME280;20346;52.702;16.886;2023-02-26T02:27:02;100228.66;;;-0.33;77.78
34073;BME280;20346;52.702;16.886;2023-02-26T02:30:09;100238.63;;;-0.34;77.76
34073;BME280;20346;52.702;16.886;2023-02-26T02:33:06;100239.63;;;-0.35;77.80
34073;BME280;20346;52.702;16.886;2023-02-26T02:36:01;100246.02;;;-0.37;77.75
34073;BME280;20346;52.702;16.886;2023-02-26T02:38:56;100246.47;;;-0.39;77.78
34073;BME280;20346;52.702;16.886;2023-02-26T02:41:50;100256.44;;;-0.40;77.77
34073;BME280;20346;52.702;16.886;2023-02-26T02:44:38;100255.02;;;-0.43;77.84
34073;BME280;20346;52.702;16.886;2023-02-26T02:47:25;100262.59;;;-0.45;77.88
34073;BME280;20346;52.702;16.886;2023-02-26T02:50:25;100261.67;;;-0.48;77.78
34073;BME280;20346;52.702;16.886;2023-02-26T02:53:14;100267.71;;;-0.50;77.89
34073;BME280;20346;52.702;16.886;2023-02-26T02:56:06;100271.41;;;-0.52;77.97
34073;BME280;20346;52.702;16.886;2023-02-26T02:58:56;100275.48;;;-0.52;77.86
34073;BME280;20346;52.702;16.886;2023-02-26T03:01:42;100274.62;;;-0.53;77.95
34073;BME280;20346;52.702;16.886;2023-02-26T03:04:29;100279.50;;;-0.54;77.95
34073;BME280;20346;52.702;16.886;2023-02-26T03:07:16;100284.88;;;-0.56;77.93
34073;BME280;20346;52.702;16.886;2023-02-26T03:10:02;100287.25;;;-0.56;77.93
34073;BME280;20346;52.702;16.886;2023-02-26T03:12:48;100293.47;;;-0.58;77.99
34073;BME280;20346;52.702;16.886;2023-02-26T03:15:36;100290.56;;;-0.59;77.98
34073;BME280;20346;52.702;16.886;2023-02-26T03:18:33;100299.50;;;-0.60;77.97
34073;BME280;20346;52.702;16.886;2023-02-26T03:24:17;100314.38;;;-0.61;78.00
34073;BME280;20346;52.702;16.886;2023-02-26T03:27:08;100319.95;;;-0.62;78.03
34073;BME280;20346;52.702;16.886;2023-02-26T03:30:01;100328.71;;;-0.63;77.98
34073;BME280;20346;52.702;16.886;2023-02-26T03:38:53;100347.29;;;-0.65;77.99
34073;BME280;20346;52.702;16.886;2023-02-26T03:44:48;100352.16;;;-0.60;78.06
34073;BME280;20346;52.702;16.886;2023-02-26T03:47:36;100359.30;;;-0.58;78.05
34073;BME280;20346;52.702;16.886;2023-02-26T03:50:30;100362.58;;;-0.56;78.07
34073;BME280;20346;52.702;16.886;2023-02-26T03:53:20;100366.14;;;-0.56;78.04
34073;BME280;20346;52.702;16.886;2023-02-26T03:59:14;100373.95;;;-0.55;78.04
34073;BME280;20346;52.702;16.886;2023-02-26T04:05:11;100382.02;;;-0.57;78.03
34073;BME280;20346;52.702;16.886;2023-02-26T04:07:59;100388.27;;;-0.58;78.04
34073;BME280;20346;52.702;16.886;2023-02-26T04:10:53;100388.58;;;-0.59;78.02
34073;BME280;20346;52.702;16.886;2023-02-26T04:13:40;100393.30;;;-0.59;78.10
34073;BME280;20346;52.702;16.886;2023-02-26T04:16:26;100395.48;;;-0.61;78.03
34073;BME280;20346;52.702;16.886;2023-02-26T04:19:12;100399.40;;;-0.60;78.05
34073;BME280;20346;52.702;16.886;2023-02-26T04:21:59;100400.91;;;-0.59;78.11
34073;BME280;20346;52.702;16.886;2023-02-26T04:24:45;100405.48;;;-0.60;78.07
34073;BME280;20346;52.702;16.886;2023-02-26T04:27:31;100413.14;;;-0.58;78.19
34073;BME280;20346;52.702;16.886;2023-02-26T04:30:17;100415.08;;;-0.55;78.15
34073;BME280;20346;52.702;16.886;2023-02-26T04:33:03;100418.69;;;-0.53;78.17
34073;BME280;20346;52.702;16.886;2023-02-26T04:35:50;100422.50;;;-0.49;78.11
34073;BME280;20346;52.702;16.886;2023-02-26T04:38:36;100425.80;;;-0.45;78.10
34073;BME280;20346;52.702;16.886;2023-02-26T04:41:23;100427.93;;;-0.42;78.17
34073;BME280;20346;52.702;16.886;2023-02-26T04:44:09;100433.98;;;-0.37;78.17
34073;BME280;20346;52.702;16.886;2023-02-26T04:46:55;100436.25;;;-0.34;78.19
34073;BME280;20346;52.702;16.886;2023-02-26T04:49:41;100440.58;;;-0.30;78.19
34073;BME280;20346;52.702;16.886;2023-02-26T04:52:28;100447.79;;;-0.27;78.18
34073;BME280;20346;52.702;16.886;2023-02-26T04:55:14;100447.02;;;-0.23;78.14
34073;BME280;20346;52.702;16.886;2023-02-26T04:58:00;100450.13;;;-0.20;78.08
34073;BME280;20346;52.702;16.886;2023-02-26T05:00:47;100450.70;;;-0.18;78.12
34073;BME280;20346;52.702;16.886;2023-02-26T05:03:33;100452.80;;;-0.15;78.12
34073;BME280;20346;52.702;16.886;2023-02-26T05:06:19;100452.84;;;-0.14;78.15
34073;BME280;20346;52.702;16.886;2023-02-26T05:09:06;100456.11;;;-0.12;78.14
34073;BME280;20346;52.702;16.886;2023-02-26T05:11:52;100463.60;;;-0.11;78.17
34073;BME280;20346;52.702;16.886;2023-02-26T05:14:38;100466.69;;;-0.09;78.16
34073;BME280;20346;52.702;16.886;2023-02-26T05:17:24;100471.49;;;-0.06;78.12
34073;BME280;20346;52.702;16.886;2023-02-26T05:20:11;100472.73;;;-0.04;78.10
34073;BME280;20346;52.702;16.886;2023-02-26T05:22:57;100474.67;;;-0.01;78.12
34073;BME280;20346;52.702;16.886;2023-02-26T05:25:43;100479.27;;;0.01;78.19
34073;BME280;20346;52.702;16.886;2023-02-26T05:28:30;100477.78;;;0.03;78.14
34073;BME280;20346;52.702;16.886;2023-02-26T05:31:16;100482.36;;;0.03;78.11
34073;BME280;20346;52.702;16.886;2023-02-26T05:34:02;100486.63;;;0.04;78.14
34073;BME280;20346;52.702;16.886;2023-02-26T05:36:48;100497.50;;;0.05;78.13
34073;BME280;20346;52.702;16.886;2023-02-26T05:39:34;100496.52;;;0.07;78.17
34073;BME280;20346;52.702;16.886;2023-02-26T05:42:20;100506.75;;;0.09;78.22
34073;BME280;20346;52.702;16.886;2023-02-26T05:45:06;100510.02;;;0.11;78.14
34073;BME280;20346;52.702;16.886;2023-02-26T05:47:53;100511.25;;;0.13;78.16
34073;BME280;20346;52.702;16.886;2023-02-26T05:50:39;100518.06;;;0.14;78.14
34073;BME280;20346;52.702;16.886;2023-02-26T05:53:25;100524.69;;;0.15;78.16
34073;BME280;20346;52.702;16.886;2023-02-26T05:56:11;100534.20;;;0.16;78.18
34073;BME280;20346;52.702;16.886;2023-02-26T05:58:57;100534.39;;;0.16;78.16
34073;BME280;20346;52.702;16.886;2023-02-26T06:01:44;100538.86;;;0.19;78.19
34073;BME280;20346;52.702;16.886;2023-02-26T06:04:30;100543.67;;;0.22;78.20
34073;BME280;20346;52.702;16.886;2023-02-26T06:07:17;100550.30;;;0.22;78.19
34073;BME280;20346;52.702;16.886;2023-02-26T06:10:03;100555.58;;;0.23;78.23
34073;BME280;20346;52.702;16.886;2023-02-26T06:12:49;100561.09;;;0.26;78.27
34073;BME280;20346;52.702;16.886;2023-02-26T06:15:35;100567.92;;;0.29;78.23
34073;BME280;20346;52.702;16.886;2023-02-26T06:18:22;100576.27;;;0.30;78.22
34073;BME280;20346;52.702;16.886;2023-02-26T06:21:08;100581.06;;;0.32;78.27
34073;BME280;20346;52.702;16.886;2023-02-26T06:23:55;100592.66;;;0.35;78.34
34073;BME280;20346;52.702;16.886;2023-02-26T06:26:41;100592.02;;;0.37;78.30
34073;BME280;20346;52.702;16.886;2023-02-26T06:29:27;100598.33;;;0.38;78.30
34073;BME280;20346;52.702;16.886;2023-02-26T06:32:13;100597.34;;;0.39;78.25
34073;BME280;20346;52.702;16.886;2023-02-26T06:35:00;100606.17;;;0.40;78.33
34073;BME280;20346;52.702;16.886;2023-02-26T06:37:46;100611.63;;;0.41;78.40
34073;BME280;20346;52.702;16.886;2023-02-26T06:40:32;100618.12;;;0.43;78.37
34073;BME280;20346;52.702;16.886;2023-02-26T06:43:18;100623.62;;;0.46;78.40
34073;BME280;20346;52.702;16.886;2023-02-26T06:46:04;100626.59;;;0.49;78.46
34073;BME280;20346;52.702;16.886;2023-02-26T06:48:50;100629.85;;;0.51;78.47
34073;BME280;20346;52.702;16.886;2023-02-26T06:51:36;100633.65;;;0.55;78.47
34073;BME280;20346;52.702;16.886;2023-02-26T06:54:22;100637.27;;;0.57;78.47
34073;BME280;20346;52.702;16.886;2023-02-26T06:57:08;100640.71;;;0.59;78.42
34073;BME280;20346;52.702;16.886;2023-02-26T06:59:55;100647.35;;;0.60;78.37
34073;BME280;20346;52.702;16.886;2023-02-26T07:02:41;100647.23;;;0.61;78.40
34073;BME280;20346;52.702;16.886;2023-02-26T07:05:27;100649.54;;;0.66;78.43
34073;BME280;20346;52.702;16.886;2023-02-26T07:08:14;100650.88;;;0.72;78.43
34073;BME280;20346;52.702;16.886;2023-02-26T07:11:00;100655.44;;;0.78;78.38
34073;BME280;20346;52.702;16.886;2023-02-26T07:13:46;100654.67;;;0.82;78.31
34073;BME280;20346;52.702;16.886;2023-02-26T07:16:32;100662.05;;;0.85;78.29
34073;BME280;20346;52.702;16.886;2023-02-26T07:19:18;100670.35;;;0.92;78.39
34073;BME280;20346;52.702;16.886;2023-02-26T07:22:05;100671.38;;;0.99;78.41
34073;BME280;20346;52.702;16.886;2023-02-26T07:24:51;100677.27;;;1.06;78.30
34073;BME280;20346;52.702;16.886;2023-02-26T07:27:37;100681.36;;;1.13;78.20
34073;BME280;20346;52.702;16.886;2023-02-26T07:30:23;100688.55;;;1.16;78.08
34073;BME280;20346;52.702;16.886;2023-02-26T07:33:09;100695.41;;;1.19;78.09
34073;BME280;20346;52.702;16.886;2023-02-26T07:35:56;100697.43;;;1.18;78.05
34073;BME280;20346;52.702;16.886;2023-02-26T07:38:42;100701.45;;;1.16;78.06
34073;BME280;20346;52.702;16.886;2023-02-26T07:41:28;100708.90;;;1.15;78.06
34073;BME280;20346;52.702;16.886;2023-02-26T07:44:15;100714.80;;;1.14;78.07
34073;BME280;20346;52.702;16.886;2023-02-26T07:47:01;100715.95;;;1.12;78.03
34073;BME280;20346;52.702;16.886;2023-02-26T07:49:47;100722.23;;;1.12;78.10
34073;BME280;20346;52.702;16.886;2023-02-26T07:52:33;100731.83;;;1.09;78.05
34073;BME280;20346;52.702;16.886;2023-02-26T07:55:19;100739.40;;;1.12;78.15
34073;BME280;20346;52.702;16.886;2023-02-26T07:58:06;100743.22;;;1.23;78.12
34073;BME280;20346;52.702;16.886;2023-02-26T08:00:53;100752.48;;;1.27;77.98
34073;BME280;20346;52.702;16.886;2023-02-26T08:03:39;100754.04;;;1.28;78.04
34073;BME280;20346;52.702;16.886;2023-02-26T08:06:25;100759.06;;;1.32;78.15
34073;BME280;20346;52.702;16.886;2023-02-26T08:09:11;100765.61;;;1.37;78.05
34073;BME280;20346;52.702;16.886;2023-02-26T08:11:57;100764.34;;;1.40;78.13
34073;BME280;20346;52.702;16.886;2023-02-26T08:14:44;100768.64;;;1.50;78.02
34073;BME280;20346;52.702;16.886;2023-02-26T08:17:31;100776.59;;;1.55;78.00
34073;BME280;20346;52.702;16.886;2023-02-26T08:20:18;100777.41;;;1.62;77.93
34073;BME280;20346;52.702;16.886;2023-02-26T08:23:04;100776.27;;;1.79;78.03
34073;BME280;20346;52.702;16.886;2023-02-26T08:25:50;100782.26;;;1.97;78.04
34073;BME280;20346;52.702;16.886;2023-02-26T08:28:36;100782.79;;;2.24;78.03
34073;BME280;20346;52.702;16.886;2023-02-26T08:31:22;100786.25;;;2.52;77.85
34073;BME280;20346;52.702;16.886;2023-02-26T08:34:08;100795.33;;;2.65;77.66
34073;BME280;20346;52.702;16.886;2023-02-26T08:36:54;100797.91;;;2.66;77.77
34073;BME280;20346;52.702;16.886;2023-02-26T08:39:40;100803.55;;;2.68;77.62
34073;BME280;20346;52.702;16.886;2023-02-26T08:42:26;100808.36;;;2.71;77.75
34073;BME280;20346;52.702;16.886;2023-02-26T08:45:13;100813.99;;;2.72;77.71
34073;BME280;20346;52.702;16.886;2023-02-26T08:47:59;100813.13;;;2.71;77.85
34073;BME280;20346;52.702;16.886;2023-02-26T08:50:45;100823.19;;;2.72;77.93
34073;BME280;20346;52.702;16.886;2023-02-26T08:53:31;100824.42;;;2.74;77.95
34073;BME280;20346;52.702;16.886;2023-02-26T08:56:17;100822.58;;;2.76;77.90
34073;BME280;20346;52.702;16.886;2023-02-26T08:59:04;100830.04;;;2.74;77.98
34073;BME280;20346;52.702;16.886;2023-02-26T09:01:50;100839.80;;;2.68;77.88
34073;BME280;20346;52.702;16.886;2023-02-26T09:04:36;100839.96;;;2.68;77.90
34073;BME280;20346;52.702;16.886;2023-02-26T09:07:22;100843.95;;;2.71;77.88
34073;BME280;20346;52.702;16.886;2023-02-26T09:10:08;100855.27;;;2.76;77.44
34073;BME280;20346;52.702;16.886;2023-02-26T09:12:54;100856.97;;;2.76;77.32
34073;BME280;20346;52.702;16.886;2023-02-26T09:15:40;100859.23;;;2.77;77.29
34073;BME280;20346;52.702;16.886;2023-02-26T09:18:26;100872.11;;;2.84;77.41
34073;BME280;20346;52.702;16.886;2023-02-26T09:21:12;100871.91;;;2.91;77.46
34073;BME280;20346;52.702;16.886;2023-02-26T09:23:59;100879.66;;;3.04;77.42
34073;BME280;20346;52.702;16.886;2023-02-26T09:26:45;100881.66;;;3.12;77.17
34073;BME280;20346;52.702;16.886;2023-02-26T09:29:31;100883.52;;;3.10;77.29
34073;BME280;20346;52.702;16.886;2023-02-26T09:32:17;100892.00;;;3.08;77.06
34073;BME280;20346;52.702;16.886;2023-02-26T09:35:03;100894.37;;;3.08;76.90
34073;BME280;20346;52.702;16.886;2023-02-26T09:37:50;100903.80;;;3.02;77.06
34073;BME280;20346;52.702;16.886;2023-02-26T09:50:04;100927.65;;;2.77;76.71
34073;BME280;20346;52.702;16.886;2023-02-26T09:55:39;100936.52;;;2.70;76.80
34073;BME280;20346;52.702;16.886;2023-02-26T09:58:30;100940.64;;;2.64;76.54
34073;BME280;20346;52.702;16.886;2023-02-26T10:07:42;100956.52;;;2.90;76.61
34073;BME280;20346;52.702;16.886;2023-02-26T10:13:42;100966.77;;;3.00;76.46
34073;BME280;20346;52.702;16.886;2023-02-26T10:16:32;100969.46;;;2.98;76.30
34073;BME280;20346;52.702;16.886;2023-02-26T10:19:20;100972.13;;;2.96;76.29
34073;BME280;20346;52.702;16.886;2023-02-26T10:25:08;100976.21;;;2.95;76.25
34073;BME280;20346;52.702;16.886;2023-02-26T10:30:58;100978.30;;;3.24;76.11
34073;BME280;20346;52.702;16.886;2023-02-26T10:39:52;100993.90;;;3.29;75.50
34073;BME280;20346;52.702;16.886;2023-02-26T10:45:57;101002.42;;;3.21;75.80
34073;BME280;20346;52.702;16.886;2023-02-26T10:51:32;101015.47;;;3.26;75.23
34073;BME280;20346;52.702;16.886;2023-02-26T10:54:36;101016.09;;;3.31;75.51
34073;BME280;20346;52.702;16.886;2023-02-26T10:57:26;101018.80;;;3.40;75.42
34073;BME280;20346;52.702;16.886;2023-02-26T11:00:15;101024.30;;;3.41;75.27
34073;BME280;20346;52.702;16.886;2023-02-26T11:03:03;101030.27;;;3.41;75.17
34073;BME280;20346;52.702;16.886;2023-02-26T11:05:50;101033.80;;;3.39;75.14
34073;BME280;20346;52.702;16.886;2023-02-26T11:08:40;101033.78;;;3.39;75.28
34073;BME280;20346;52.702;16.886;2023-02-26T11:11:40;101035.00;;;3.39;75.23
34073;BME280;20346;52.702;16.886;2023-02-26T11:14:27;101034.13;;;3.39;75.14
34073;BME280;20346;52.702;16.886;2023-02-26T11:17:16;101040.62;;;3.39;75.07
34073;BME280;20346;52.702;16.886;2023-02-26T11:20:12;101037.17;;;3.38;75.10
34073;BME280;20346;52.702;16.886;2023-02-26T11:23:00;101041.88;;;3.43;74.93
34073;BME280;20346;52.702;16.886;2023-02-26T11:25:52;101043.44;;;3.52;74.98
34073;BME280;20346;52.702;16.886;2023-02-26T11:28:46;101046.84;;;3.60;74.39
34073;BME280;20346;52.702;16.886;2023-02-26T11:31:32;101048.55;;;3.72;74.79
34073;BME280;20346;52.702;16.886;2023-02-26T11:34:23;101051.67;;;3.75;74.17
34073;BME280;20346;52.702;16.886;2023-02-26T11:37:09;101053.36;;;3.74;74.49
34073;BME280;20346;52.702;16.886;2023-02-26T11:39:57;101057.58;;;3.72;74.40
34073;BME280;20346;52.702;16.886;2023-02-26T11:42:46;101061.92;;;3.67;74.23
34073;BME280;20346;52.702;16.886;2023-02-26T11:45:34;101065.77;;;3.61;74.30
34073;BME280;20346;52.702;16.886;2023-02-26T11:48:43;101070.23;;;3.62;74.02
34073;BME280;20346;52.702;16.886;2023-02-26T11:51:28;101079.46;;;3.56;73.94
34073;BME280;20346;52.702;16.886;2023-02-26T11:57:40;101085.38;;;3.54;74.24
34073;BME280;20346;52.702;16.886;2023-02-26T12:00:31;101088.69;;;3.57;74.06
34073;BME280;20346;52.702;16.886;2023-02-26T12:03:21;101091.27;;;3.58;73.98
34073;BME280;20346;52.702;16.886;2023-02-26T12:06:14;101092.11;;;3.67;74.19
34073;BME280;20346;52.702;16.886;2023-02-26T12:09:01;101092.45;;;3.76;73.81
34073;BME280;20346;52.702;16.886;2023-02-26T12:12:06;101094.11;;;3.83;73.81
34073;BME280;20346;52.702;16.886;2023-02-26T12:18:18;101091.27;;;3.86;73.68
34073;BME280;20346;52.702;16.886;2023-02-26T12:24:19;101100.79;;;3.66;73.00
34073;BME280;20346;52.702;16.886;2023-02-26T12:39:11;101121.15;;;3.52;72.45
34073;BME280;20346;52.702;16.886;2023-02-26T12:48:25;101122.84;;;3.60;72.86
34073;BME280;20346;52.702;16.886;2023-02-26T13:12:26;101158.79;;;3.84;72.17
34073;BME280;20346;52.702;16.886;2023-02-26T13:21:19;101167.52;;;3.79;72.18
34073;BME280;20346;52.702;16.886;2023-02-26T13:24:09;101171.40;;;3.76;72.03
34073;BME280;20346;52.702;16.886;2023-02-26T13:26:57;101170.21;;;3.76;72.04
34073;BME280;20346;52.702;16.886;2023-02-26T13:29:48;101173.48;;;3.78;71.66
34073;BME280;20346;52.702;16.886;2023-02-26T13:32:36;101178.04;;;3.76;71.86
34073;BME280;20346;52.702;16.886;2023-02-26T13:35:32;101180.24;;;3.75;71.88
34073;BME280;20346;52.702;16.886;2023-02-26T13:41:09;101186.49;;;3.64;71.45
34073;BME280;20346;52.702;16.886;2023-02-26T13:44:05;101187.69;;;3.63;71.55
34073;BME280;20346;52.702;16.886;2023-02-26T13:47:07;101195.40;;;3.66;71.58
34073;BME280;20346;52.702;16.886;2023-02-26T13:59:28;101207.83;;;3.48;71.16
34073;BME280;20346;52.702;16.886;2023-02-26T14:05:06;101208.66;;;3.48;71.12
34073;BME280;20346;52.702;16.886;2023-02-26T14:11:05;101209.16;;;3.55;70.98
34073;BME280;20346;52.702;16.886;2023-02-26T14:14:11;101208.46;;;3.54;70.98
34073;BME280;20346;52.702;16.886;2023-02-26T14:22:41;101212.92;;;3.55;70.76
34073;BME280;20346;52.702;16.886;2023-02-26T14:25:32;101212.72;;;3.54;70.71
34073;BME280;20346;52.702;16.886;2023-02-26T14:37:13;101221.61;;;3.48;70.45
34073;BME280;20346;52.702;16.886;2023-02-26T14:42:57;101228.98;;;3.42;70.31
34073;BME280;20346;52.702;16.886;2023-02-26T14:45:44;101229.45;;;3.40;70.35
34073;BME280;20346;52.702;16.886;2023-02-26T14:48:30;101228.69;;;3.37;70.23
34073;BME280;20346;52.702;16.886;2023-02-26T14:57:19;101232.17;;;3.18;69.88
34073;BME280;20346;52.702;16.886;2023-02-26T15:00:12;101240.96;;;3.15;69.92
34073;BME280;20346;52.702;16.886;2023-02-26T15:09:28;101241.05;;;3.12;69.84
34073;BME280;20346;52.702;16.886;2023-02-26T15:24:47;101260.66;;;3.05;69.99
34073;BME280;20346;52.702;16.886;2023-02-26T15:27:33;101264.86;;;3.03;69.98
34073;BME280;20346;52.702;16.886;2023-02-26T15:30:21;101270.89;;;2.99;70.04
34073;BME280;20346;52.702;16.886;2023-02-26T15:33:11;101276.10;;;2.96;70.05
34073;BME280;20346;52.702;16.886;2023-02-26T15:35:58;101282.99;;;2.92;70.00
34073;BME280;20346;52.702;16.886;2023-02-26T15:38:45;101287.29;;;2.87;69.98
34073;BME280;20346;52.702;16.886;2023-02-26T15:41:32;101289.25;;;2.84;70.01
34073;BME280;20346;52.702;16.886;2023-02-26T15:44:20;101295.30;;;2.82;69.96
34073;BME280;20346;52.702;16.886;2023-02-26T15:47:08;101295.23;;;2.79;70.05
34073;BME280;20346;52.702;16.886;2023-02-26T15:49:54;101294.64;;;2.76;69.89
34073;BME280;20346;52.702;16.886;2023-02-26T15:52:41;101297.76;;;2.72;69.82
34073;BME280;20346;52.702;16.886;2023-02-26T15:55:32;101302.77;;;2.67;69.88
34073;BME280;20346;52.702;16.886;2023-02-26T15:58:21;101308.61;;;2.64;69.87
34073;BME280;20346;52.702;16.886;2023-02-26T16:01:13;101308.52;;;2.59;69.90
34073;BME280;20346;52.702;16.886;2023-02-26T16:04:00;101312.48;;;2.55;69.81
34073;BME280;20346;52.702;16.886;2023-02-26T16:06:48;101317.65;;;2.51;69.78
34073;BME280;20346;52.702;16.886;2023-02-26T16:09:37;101318.54;;;2.46;69.73
34073;BME280;20346;52.702;16.886;2023-02-26T16:12:24;101325.39;;;2.42;69.76
34073;BME280;20346;52.702;16.886;2023-02-26T16:15:16;101331.73;;;2.38;69.73
34073;BME280;20346;52.702;16.886;2023-02-26T16:18:04;101332.33;;;2.35;69.73
34073;BME280;20346;52.702;16.886;2023-02-26T16:20:52;101334.28;;;2.31;69.63
34073;BME280;20346;52.702;16.886;2023-02-26T16:23:45;101337.09;;;2.28;69.67
34073;BME280;20346;52.702;16.886;2023-02-26T16:26:33;101345.33;;;2.25;69.74
34073;BME280;20346;52.702;16.886;2023-02-26T16:29:24;101347.45;;;2.23;69.64
34073;BME280;20346;52.702;16.886;2023-02-26T16:32:11;101349.94;;;2.21;69.67
34073;BME280;20346;52.702;16.886;2023-02-26T16:34:59;101353.08;;;2.17;69.64
34073;BME280;20346;52.702;16.886;2023-02-26T16:37:45;101355.08;;;2.16;69.65
34073;BME280;20346;52.702;16.886;2023-02-26T16:40:39;101361.45;;;2.13;69.69
34073;BME280;20346;52.702;16.886;2023-02-26T16:43:33;101362.41;;;2.12;69.68
34073;BME280;20346;52.702;16.886;2023-02-26T16:46:42;101365.44;;;2.11;69.58
34073;BME280;20346;52.702;16.886;2023-02-26T16:49:31;101370.32;;;2.08;69.58
34073;BME280;20346;52.702;16.886;2023-02-26T16:52:19;101373.81;;;2.05;69.51
34073;BME280;20346;52.702;16.886;2023-02-26T16:55:07;101376.48;;;2.03;69.55
34073;BME280;20346;52.702;16.886;2023-02-26T16:57:57;101388.66;;;2.01;69.49
34073;BME280;20346;52.702;16.886;2023-02-26T17:00:49;101394.70;;;1.98;69.49
34073;BME280;20346;52.702;16.886;2023-02-26T17:03:36;101398.06;;;1.97;69.44
34073;BME280;20346;52.702;16.886;2023-02-26T17:06:26;101403.32;;;1.97;69.47
34073;BME280;20346;52.702;16.886;2023-02-26T17:09:35;101404.30;;;1.96;69.34
34073;BME280;20346;52.702;16.886;2023-02-26T17:12:29;101409.05;;;1.95;69.36
34073;BME280;20346;52.702;16.886;2023-02-26T17:15:28;101409.21;;;1.95;69.29
34073;BME280;20346;52.702;16.886;2023-02-26T17:18:15;101415.50;;;1.95;69.27
34073;BME280;20346;52.702;16.886;2023-02-26T17:21:01;101415.98;;;1.94;69.27
34073;BME280;20346;52.702;16.886;2023-02-26T17:23:49;101418.70;;;1.94;69.23
34073;BME280;20346;52.702;16.886;2023-02-26T17:26:35;101417.47;;;1.92;69.15
34073;BME280;20346;52.702;16.886;2023-02-26T17:29:24;101419.98;;;1.92;69.08
34073;BME280;20346;52.702;16.886;2023-02-26T17:32:20;101421.52;;;1.91;69.12
34073;BME280;20346;52.702;16.886;2023-02-26T17:35:07;101427.80;;;1.91;69.07
34073;BME280;20346;52.702;16.886;2023-02-26T17:37:53;101429.33;;;1.91;69.13
34073;BME280;20346;52.702;16.886;2023-02-26T17:40:41;101430.52;;;1.91;69.05
34073;BME280;20346;52.702;16.886;2023-02-26T17:43:27;101434.09;;;1.91;69.05
34073;BME280;20346;52.702;16.886;2023-02-26T17:46:13;101432.00;;;1.90;68.98
34073;BME280;20346;52.702;16.886;2023-02-26T17:48:59;101439.65;;;1.89;68.98
34073;BME280;20346;52.702;16.886;2023-02-26T17:51:46;101439.95;;;1.89;68.99
34073;BME280;20346;52.702;16.886;2023-02-26T17:54:32;101444.69;;;1.88;69.02
34073;BME280;20346;52.702;16.886;2023-02-26T17:57:19;101443.50;;;1.88;68.96
34073;BME280;20346;52.702;16.886;2023-02-26T18:00:06;101451.81;;;1.87;68.97
34073;BME280;20346;52.702;16.886;2023-02-26T18:02:53;101457.77;;;1.88;68.99